Terminal Aerodrome Forecast
Issued by NWS South Bend, IN

Home | Current Version | Previous Version | Graphics & Text | Print | Product List | Glossary On
Versions: 1 2 3 4 5 6 7 8 9 10 11 12 13 14
000
FTUS43 KIWX 161700 RRA
TAFSBN
TAF
KSBN 161742Z 1618/1718 32005KT 6SM -SHRA OVC015
     FM161830 32006KT P6SM BKN020
     FM162200 32005KT P6SM SCT020 BKN050
     FM170500 29003KT P6SM SCT050
     FM170900 VRB03KT 4SM BR SKC
     FM171300 32005KT P6SM SKC=

USA.gov is the U.S. government's official web portal to all federal, state and local government web resources and services.